Time;durP1;ratioP1;P1;durP2;ratioP2;P2;SDS_P1;SDS_P2;PMS_P1;PMS_P2;Temp;Humidity;BMP_temperature;BMP_pressure;BME280_temperature;BME280_humidity;BME280_pressure;Samples;Min_cycle;Max_cycle;Signal;HPM_P1;HPM_P2
2022/08/11 00:03:57;;;;;;;3.17;1.17;;;19.00;98.00;;;;;;20985487;28;20403;-76
2022/08/11 00:13:59;;;;;;;1.98;1.38;;;18.90;98.20;;;;;;21002739;28;20528;-76
2022/08/11 00:24:00;;;;;;;;;;;18.80;98.40;;;;;;20983697;28;20048;-76
2022/08/11 00:34:03;;;;;;;3.55;1.08;;;19.10;97.70;;;;;;21000423;28;19916;-76
2022/08/11 00:44:40;;;;;;;6.25;0.90;;;19.10;97.80;;;;;;20999717;28;20116;-76
2022/08/11 00:55:10;;;;;;;2.67;1.20;;;19.00;98.00;;;;;;20980507;28;20448;-76
2022/08/11 01:05:27;;;;;;;1.90;1.05;;;19.00;98.00;;;;;;20979992;28;20043;-76
2022/08/11 01:16:06;;;;;;;8.95;1.30;;;18.90;98.40;;;;;;20978962;28;20044;-76
2022/08/11 01:26:19;;;;;;;1.35;1.10;;;18.70;98.90;;;;;;20860294;28;20403;-75
2022/08/11 01:36:54;;;;;;;3.28;1.75;;;18.70;99.10;;;;;;20995290;28;20089;-75
2022/08/11 01:58:14;;;;;;;1.27;1.15;;;18.60;99.60;;;;;;20993670;28;20068;-75
2022/08/11 02:08:38;;;;;;;1.70;1.13;;;18.40;99.90;;;;;;20974538;28;20111;-76
2022/08/11 02:29:11;;;;;;;3.05;1.50;;;18.10;99.90;;;;;;20908928;28;20045;-76
2022/08/11 02:39:16;;;;;;;3.03;1.50;;;18.00;99.90;;;;;;20908224;28;20067;-76
2022/08/11 02:49:52;;;;;;;3.30;1.38;;;17.80;99.90;;;;;;20908233;28;20067;-75
2022/08/11 03:00:06;;;;;;;8.90;1.80;;;17.80;99.90;;;;;;20906034;28;20495;-76
2022/08/11 03:10:20;;;;;;;3.38;1.80;;;17.80;99.90;;;;;;20907000;28;20033;-75
2022/08/11 03:20:37;;;;;;;2.88;1.73;;;17.70;99.90;;;;;;20911004;28;20033;-75
2022/08/11 03:30:49;;;;;;;2.88;1.38;;;17.60;99.90;;;;;;20922532;28;20044;-75
2022/08/11 03:51:57;;;;;;;5.03;1.73;;;17.40;99.90;;;;;;20921016;28;20029;-76
2022/08/11 04:02:19;;;;;;;2.10;1.42;;;17.10;99.90;;;;;;20921165;28;20130;-77
2022/08/11 04:12:32;;;;;;;5.43;1.70;;;17.10;99.90;;;;;;20919748;28;20045;-76
2022/08/11 04:22:39;;;;;;;6.88;1.83;;;17.00;99.90;;;;;;20918787;28;20398;-75
2022/08/11 04:32:57;;;;;;;9.18;1.98;;;16.90;99.90;;;;;;20915811;28;20037;-76
2022/08/11 04:43:20;;;;;;;3.00;2.05;;;16.80;99.90;;;;;;20916159;28;20040;-76
2022/08/11 05:35:54;;;;;;;4.65;1.98;;;17.30;99.90;;;;;;20985527;28;20495;-76
2022/08/11 05:56:25;;;;;;;3.70;2.13;;;17.90;99.90;;;;;;20961818;28;20068;-76
2022/08/11 06:06:27;;;;;;;3.10;1.90;;;18.40;99.90;;;;;;20989393;28;20047;-76
2022/08/11 06:16:28;;;;;;;2.72;1.75;;;18.80;99.90;;;;;;20991555;28;20445;-75
2022/08/11 06:26:30;;;;;;;5.40;1.97;;;19.20;99.90;;;;;;20991776;28;20128;-75
2022/08/11 06:36:41;;;;;;;6.10;2.00;;;19.80;99.90;;;;;;20991295;28;20115;-75
2022/08/11 06:46:51;;;;;;;6.72;1.95;;;20.50;99.90;;;;;;20990902;28;20570;-75
2022/08/11 07:28:54;;;;;;;7.22;1.70;;;22.00;99.90;;;;;;20989403;28;20517;-76
2022/08/11 07:38:50;;;;;;;3.27;1.60;;;23.50;99.90;;;;;;20988637;28;20050;-76
2022/08/11 08:19:54;;;;;;;6.70;1.90;;;25.50;96.80;;;;;;21087334;22;20048;-77
2022/08/11 08:40:17;;;;;;;2.33;1.80;;;25.70;96.80;;;;;;21090144;28;20032;-77
2022/08/11 08:50:22;;;;;;;3.08;1.70;;;26.60;95.70;;;;;;21087913;28;20040;-77
2022/08/11 09:00:23;;;;;;;3.83;1.52;;;27.20;95.40;;;;;;21090692;28;20044;-76
2022/08/11 09:10:26;;;;;;;1.90;1.33;;;27.40;95.10;;;;;;21092055;28;20162;-76
2022/08/11 09:20:33;;;;;;;3.35;1.75;;;28.10;93.80;;;;;;21087362;28;20452;-76
2022/08/11 09:30:33;;;;;;;2.22;1.60;;;28.60;93.60;;;;;;21104710;28;20071;-75
2022/08/11 09:40:36;;;;;;;2.15;1.23;;;28.80;92.50;;;;;;21091060;28;20032;-76
2022/08/11 09:50:39;;;;;;;2.75;1.45;;;29.10;92.80;;;;;;21086368;28;20036;-76
2022/08/11 10:00:40;;;;;;;5.55;1.60;;;29.50;92.10;;;;;;21078807;28;20115;-76
2022/08/11 10:10:42;;;;;;;3.08;1.30;;;29.90;91.50;;;;;;21059411;28;20043;-76
2022/08/11 10:20:47;;;;;;;4.20;1.25;;;29.50;92.00;;;;;;21076972;28;20036;-75
2022/08/11 11:01:52;;;;;;;2.85;1.50;;;31.60;89.60;;;;;;21075386;28;20498;-76
2022/08/11 11:22:40;;;;;;;1.10;1.00;;;31.20;89.60;;;;;;20994220;28;20102;-77
2022/08/11 11:33:03;;;;;;;6.32;1.30;;;31.80;88.40;;;;;;20940889;28;20047;-76
2022/08/11 11:43:05;;;;;;;2.35;1.20;;;32.20;87.00;;;;;;20996029;28;20032;-76
2022/08/11 11:53:09;;;;;;;3.67;1.10;;;31.60;88.50;;;;;;20978019;28;20130;-76
2022/08/11 12:03:11;;;;;;;2.60;1.40;;;31.60;87.50;;;;;;21003682;28;20033;-76
2022/08/11 12:34:14;;;;;;;2.33;0.98;;;32.90;84.70;;;;;;20967755;28;20339;-76
2022/08/11 12:54:48;;;;;;;2.00;1.20;;;33.20;85.20;;;;;;20921314;28;20045;-76
2022/08/11 13:04:58;;;;;;;2.00;1.13;;;33.50;82.70;;;;;;20916219;28;20765;-77
2022/08/11 13:15:00;;;;;;;1.70;1.30;;;31.50;85.20;;;;;;20915164;28;20455;-76
2022/08/11 13:25:03;;;;;;;2.92;1.45;;;33.20;82.70;;;;;;20896599;28;20041;-76
2022/08/11 13:35:04;;;;;;;5.78;1.42;;;33.90;83.00;;;;;;20956341;28;20047;-77
2022/08/11 13:45:07;;;;;;;5.45;1.30;;;33.30;83.50;;;;;;20998296;28;20050;-75
2022/08/11 13:55:20;;;;;;;5.75;1.63;;;33.20;82.80;;;;;;20994539;28;20127;-76
2022/08/11 14:05:47;;;;;;;1.30;1.10;;;33.50;83.30;;;;;;20993155;28;20036;-77
2022/08/11 14:15:50;;;;;;;1.70;1.10;;;33.00;83.80;;;;;;20992771;28;20586;-76
2022/08/11 14:36:10;;;;;;;5.25;1.58;;;32.70;83.40;;;;;;20944282;28;20037;-77
2022/08/11 14:56:37;;;;;;;4.67;1.57;;;32.60;84.00;;;;;;20896055;28;20037;-78
2022/08/11 15:06:38;;;;;;;5.07;1.30;;;32.60;84.30;;;;;;20908090;28;20044;-77
2022/08/11 15:37:34;;;;;;;2.78;1.17;;;31.80;84.60;;;;;;21100105;28;20040;-77
2022/08/11 15:47:44;;;;;;;5.53;1.50;;;31.80;84.00;;;;;;21099438;28;20044;-75
2022/08/11 16:08:07;;;;;;;2.78;1.30;;;30.70;85.80;;;;;;21091756;28;20007;-76
2022/08/11 16:18:08;;;;;;;3.60;2.33;;;30.00;87.20;;;;;;21093505;28;20445;-77
2022/08/11 16:28:13;;;;;;;2.58;1.60;;;29.90;86.60;;;;;;21093179;28;20040;-76
2022/08/11 16:38:34;;;;;;;4.38;1.40;;;29.50;87.70;;;;;;21094169;28;20080;-77
2022/08/11 16:48:36;;;;;;;1.70;1.42;;;29.30;87.90;;;;;;21078171;28;20040;-77
2022/08/11 17:19:25;;;;;;;4.82;1.30;;;28.50;89.70;;;;;;20983259;28;20040;-77
2022/08/11 17:29:34;;;;;;;2.53;1.45;;;28.50;89.10;;;;;;21068657;28;20150;-78
2022/08/11 17:39:35;;;;;;;2.58;1.30;;;28.30;89.80;;;;;;21082145;28;20040;-78
2022/08/11 17:49:38;;;;;;;3.33;1.40;;;28.00;89.90;;;;;;21079900;28;20506;-77
2022/08/11 17:59:52;;;;;;;3.97;1.77;;;27.80;90.10;;;;;;21089412;28;20051;-79
